sensor_id;sensor_type;location;lat;lon;timestamp;pressure;altitude;pressure_sealevel;temperature;humidity
12452;BME280;72521;48.924;12.204;2023-12-20T00:03:21;97395.63;;;2.66;100.00
12452;BME280;72521;48.924;12.204;2023-12-20T00:08:26;97389.59;;;2.77;100.00
12452;BME280;72521;48.924;12.204;2023-12-20T00:13:30;97376.31;;;2.78;100.00
12452;BME280;72521;48.924;12.204;2023-12-20T00:18:36;97372.03;;;2.89;100.00
12452;BME280;72521;48.924;12.204;2023-12-20T00:23:40;97370.94;;;2.85;100.00
12452;BME280;72521;48.924;12.204;2023-12-20T00:28:44;97365.16;;;2.83;100.00
12452;BME280;72521;48.924;12.204;2023-12-20T00:33:50;97368.59;;;3.00;100.00
12452;BME280;72521;48.924;12.204;2023-12-20T00:38:54;97369.88;;;2.97;100.00
12452;BME280;72521;48.924;12.204;2023-12-20T00:43:58;97371.34;;;3.05;100.00
12452;BME280;72521;48.924;12.204;2023-12-20T00:49:04;97345.84;;;3.12;100.00
12452;BME280;72521;48.924;12.204;2023-12-20T00:54:08;97358.34;;;3.10;100.00
12452;BME280;72521;48.924;12.204;2023-12-20T00:59:12;97359.19;;;2.99;100.00
12452;BME280;72521;48.924;12.204;2023-12-20T01:04:17;97341.22;;;3.03;100.00
12452;BME280;72521;48.924;12.204;2023-12-20T01:09:22;97349.84;;;3.03;100.00
12452;BME280;72521;48.924;12.204;2023-12-20T01:14:30;97344.84;;;3.02;100.00
12452;BME280;72521;48.924;12.204;2023-12-20T01:19:35;97358.50;;;3.04;100.00
12452;BME280;72521;48.924;12.204;2023-12-20T01:24:40;97350.41;;;3.05;100.00
12452;BME280;72521;48.924;12.204;2023-12-20T01:29:45;97340.66;;;3.01;100.00
12452;BME280;72521;48.924;12.204;2023-12-20T01:34:51;97357.59;;;2.98;100.00
12452;BME280;72521;48.924;12.204;2023-12-20T01:39:56;97335.53;;;3.06;100.00
12452;BME280;72521;48.924;12.204;2023-12-20T01:45:01;97322.38;;;3.01;100.00
12452;BME280;72521;48.924;12.204;2023-12-20T01:50:09;97325.69;;;2.96;100.00
12452;BME280;72521;48.924;12.204;2023-12-20T01:55:14;97326.16;;;2.93;100.00
12452;BME280;72521;48.924;12.204;2023-12-20T02:00:18;97313.50;;;3.02;100.00
12452;BME280;72521;48.924;12.204;2023-12-20T02:05:27;97305.75;;;3.07;100.00
12452;BME280;72521;48.924;12.204;2023-12-20T02:10:32;97308.59;;;3.05;100.00
12452;BME280;72521;48.924;12.204;2023-12-20T02:15:37;97308.28;;;3.18;100.00
12452;BME280;72521;48.924;12.204;2023-12-20T02:20:43;97303.41;;;3.22;100.00
12452;BME280;72521;48.924;12.204;2023-12-20T02:25:48;97280.25;;;3.14;100.00
12452;BME280;72521;48.924;12.204;2023-12-20T02:30:53;97271.16;;;3.16;100.00
12452;BME280;72521;48.924;12.204;2023-12-20T02:35:58;97271.28;;;3.10;100.00
12452;BME280;72521;48.924;12.204;2023-12-20T02:41:05;97272.19;;;3.15;100.00
12452;BME280;72521;48.924;12.204;2023-12-20T02:46:09;97265.38;;;3.14;100.00
12452;BME280;72521;48.924;12.204;2023-12-20T02:51:14;97263.38;;;3.05;100.00
12452;BME280;72521;48.924;12.204;2023-12-20T02:56:20;97265.38;;;3.14;100.00
12452;BME280;72521;48.924;12.204;2023-12-20T03:01:24;97262.81;;;3.19;100.00
12452;BME280;72521;48.924;12.204;2023-12-20T03:06:28;97259.41;;;3.19;100.00
12452;BME280;72521;48.924;12.204;2023-12-20T03:11:34;97255.53;;;3.21;100.00
12452;BME280;72521;48.924;12.204;2023-12-20T03:16:38;97248.09;;;3.30;100.00
12452;BME280;72521;48.924;12.204;2023-12-20T03:21:42;97242.84;;;3.47;100.00
12452;BME280;72521;48.924;12.204;2023-12-20T03:26:48;97243.41;;;3.49;100.00
12452;BME280;72521;48.924;12.204;2023-12-20T03:31:52;97235.31;;;3.50;100.00
12452;BME280;72521;48.924;12.204;2023-12-20T03:36:56;97222.56;;;3.54;100.00
12452;BME280;72521;48.924;12.204;2023-12-20T03:42:02;97212.72;;;3.61;100.00
12452;BME280;72521;48.924;12.204;2023-12-20T03:47:07;97223.00;;;3.67;100.00
12452;BME280;72521;48.924;12.204;2023-12-20T03:52:11;97234.34;;;3.73;100.00
12452;BME280;72521;48.924;12.204;2023-12-20T03:57:17;97242.81;;;3.80;100.00
12452;BME280;72521;48.924;12.204;2023-12-20T04:02:21;97241.22;;;3.79;100.00
12452;BME280;72521;48.924;12.204;2023-12-20T04:07:25;97243.00;;;3.73;100.00
12452;BME280;72521;48.924;12.204;2023-12-20T04:12:31;97250.84;;;3.73;100.00
12452;BME280;72521;48.924;12.204;2023-12-20T04:17:35;97254.72;;;3.71;100.00
12452;BME280;72521;48.924;12.204;2023-12-20T04:22:39;97260.44;;;3.68;100.00
12452;BME280;72521;48.924;12.204;2023-12-20T04:27:46;97259.16;;;3.70;100.00
12452;BME280;72521;48.924;12.204;2023-12-20T04:32:51;97264.41;;;3.70;100.00
12452;BME280;72521;48.924;12.204;2023-12-20T04:37:55;97263.94;;;3.73;100.00
12452;BME280;72521;48.924;12.204;2023-12-20T04:43:01;97256.78;;;3.69;100.00
12452;BME280;72521;48.924;12.204;2023-12-20T04:48:06;97269.16;;;3.73;100.00
12452;BME280;72521;48.924;12.204;2023-12-20T04:53:10;97275.03;;;3.64;100.00
12452;BME280;72521;48.924;12.204;2023-12-20T04:58:16;97264.72;;;3.57;100.00
12452;BME280;72521;48.924;12.204;2023-12-20T05:03:21;97266.41;;;3.63;100.00
12452;BME280;72521;48.924;12.204;2023-12-20T05:08:25;97267.84;;;3.54;100.00
12452;BME280;72521;48.924;12.204;2023-12-20T05:13:31;97266.94;;;3.49;100.00
12452;BME280;72521;48.924;12.204;2023-12-20T05:18:49;97268.38;;;3.40;100.00
12452;BME280;72521;48.924;12.204;2023-12-20T05:23:55;97273.31;;;3.36;100.00
12452;BME280;72521;48.924;12.204;2023-12-20T05:29:01;97280.75;;;3.44;100.00
12452;BME280;72521;48.924;12.204;2023-12-20T05:34:05;97292.25;;;3.43;100.00
12452;BME280;72521;48.924;12.204;2023-12-20T05:39:11;97290.31;;;3.39;100.00
12452;BME280;72521;48.924;12.204;2023-12-20T05:44:17;97298.97;;;3.39;100.00
12452;BME280;72521;48.924;12.204;2023-12-20T05:49:21;97299.06;;;3.44;100.00
12452;BME280;72521;48.924;12.204;2023-12-20T05:54:26;97300.56;;;3.40;100.00
12452;BME280;72521;48.924;12.204;2023-12-20T05:59:31;97308.97;;;3.42;100.00
12452;BME280;72521;48.924;12.204;2023-12-20T06:04:35;97320.78;;;3.45;100.00
12452;BME280;72521;48.924;12.204;2023-12-20T06:09:40;97331.06;;;3.51;100.00
12452;BME280;72521;48.924;12.204;2023-12-20T06:14:45;97333.22;;;3.54;100.00
12452;BME280;72521;48.924;12.204;2023-12-20T06:19:49;97329.03;;;3.53;100.00
12452;BME280;72521;48.924;12.204;2023-12-20T06:24:54;97344.56;;;3.60;100.00
12452;BME280;72521;48.924;12.204;2023-12-20T06:30:00;97340.34;;;3.59;100.00
12452;BME280;72521;48.924;12.204;2023-12-20T06:35:05;97346.69;;;3.63;100.00
12452;BME280;72521;48.924;12.204;2023-12-20T06:40:10;97352.06;;;3.56;100.00
12452;BME280;72521;48.924;12.204;2023-12-20T06:45:21;97359.84;;;3.51;100.00
12452;BME280;72521;48.924;12.204;2023-12-20T06:50:26;97354.38;;;3.53;100.00
12452;BME280;72521;48.924;12.204;2023-12-20T06:55:30;97364.63;;;3.54;100.00
12452;BME280;72521;48.924;12.204;2023-12-20T07:00:35;97372.63;;;3.64;100.00
12452;BME280;72521;48.924;12.204;2023-12-20T07:05:40;97387.75;;;3.62;100.00
12452;BME280;72521;48.924;12.204;2023-12-20T07:10:44;97387.03;;;3.67;100.00
12452;BME280;72521;48.924;12.204;2023-12-20T07:15:50;97385.44;;;3.66;100.00
12452;BME280;72521;48.924;12.204;2023-12-20T07:20:57;97404.41;;;3.73;100.00
12452;BME280;72521;48.924;12.204;2023-12-20T07:26:01;97397.28;;;3.68;100.00
12452;BME280;72521;48.924;12.204;2023-12-20T07:31:08;97401.47;;;3.69;100.00
12452;BME280;72521;48.924;12.204;2023-12-20T07:36:13;97418.44;;;3.67;100.00
12452;BME280;72521;48.924;12.204;2023-12-20T07:41:18;97411.38;;;3.67;100.00
12452;BME280;72521;48.924;12.204;2023-12-20T07:46:25;97414.66;;;3.75;100.00
12452;BME280;72521;48.924;12.204;2023-12-20T07:51:29;97429.63;;;3.79;100.00
12452;BME280;72521;48.924;12.204;2023-12-20T07:56:33;97432.34;;;3.84;100.00
12452;BME280;72521;48.924;12.204;2023-12-20T08:01:39;97450.91;;;3.83;100.00
12452;BME280;72521;48.924;12.204;2023-12-20T08:06:43;97450.41;;;3.86;100.00
12452;BME280;72521;48.924;12.204;2023-12-20T08:11:48;97450.09;;;3.82;100.00
12452;BME280;72521;48.924;12.204;2023-12-20T08:16:54;97452.78;;;3.87;100.00
12452;BME280;72521;48.924;12.204;2023-12-20T08:21:59;97459.44;;;3.95;100.00
12452;BME280;72521;48.924;12.204;2023-12-20T08:27:04;97458.59;;;3.89;100.00
12452;BME280;72521;48.924;12.204;2023-12-20T08:32:10;97459.53;;;3.83;100.00
12452;BME280;72521;48.924;12.204;2023-12-20T08:37:14;97463.03;;;3.89;100.00
12452;BME280;72521;48.924;12.204;2023-12-20T08:42:18;97462.88;;;3.95;100.00
12452;BME280;72521;48.924;12.204;2023-12-20T08:47:24;97462.63;;;3.97;100.00
12452;BME280;72521;48.924;12.204;2023-12-20T08:52:28;97467.06;;;3.96;100.00
12452;BME280;72521;48.924;12.204;2023-12-20T08:57:33;97471.22;;;3.92;100.00
12452;BME280;72521;48.924;12.204;2023-12-20T09:02:38;97474.94;;;3.96;100.00
12452;BME280;72521;48.924;12.204;2023-12-20T09:07:42;97471.22;;;3.92;100.00
12452;BME280;72521;48.924;12.204;2023-12-20T09:12:47;97459.63;;;3.88;100.00
12452;BME280;72521;48.924;12.204;2023-12-20T09:17:53;97449.16;;;3.88;100.00
12452;BME280;72521;48.924;12.204;2023-12-20T09:22:57;97469.47;;;3.98;100.00
12452;BME280;72521;48.924;12.204;2023-12-20T09:28:01;97465.03;;;3.98;100.00
12452;BME280;72521;48.924;12.204;2023-12-20T09:33:08;97464.06;;;4.04;100.00
12452;BME280;72521;48.924;12.204;2023-12-20T09:38:12;97479.31;;;4.07;100.00
12452;BME280;72521;48.924;12.204;2023-12-20T09:43:19;97478.34;;;4.14;100.00
12452;BME280;72521;48.924;12.204;2023-12-20T09:48:27;97472.00;;;4.09;100.00
12452;BME280;72521;48.924;12.204;2023-12-20T09:53:33;97471.06;;;4.16;100.00
12452;BME280;72521;48.924;12.204;2023-12-20T09:58:40;97468.44;;;4.16;100.00
12452;BME280;72521;48.924;12.204;2023-12-20T10:03:46;97459.06;;;4.36;100.00
12452;BME280;72521;48.924;12.204;2023-12-20T10:08:51;97450.34;;;4.31;100.00
12452;BME280;72521;48.924;12.204;2023-12-20T10:14:00;97445.56;;;4.44;100.00
12452;BME280;72521;48.924;12.204;2023-12-20T10:19:06;97437.25;;;4.31;100.00
12452;BME280;72521;48.924;12.204;2023-12-20T10:24:17;97450.88;;;4.50;100.00
12452;BME280;72521;48.924;12.204;2023-12-20T10:29:21;97451.59;;;4.45;100.00
12452;BME280;72521;48.924;12.204;2023-12-20T10:34:28;97439.69;;;4.54;100.00
12452;BME280;72521;48.924;12.204;2023-12-20T10:39:33;97443.88;;;4.94;100.00
12452;BME280;72521;48.924;12.204;2023-12-20T10:44:37;97441.28;;;5.20;100.00
12452;BME280;72521;48.924;12.204;2023-12-20T10:49:44;97441.13;;;5.05;100.00
12452;BME280;72521;48.924;12.204;2023-12-20T10:54:50;97451.75;;;5.15;100.00
12452;BME280;72521;48.924;12.204;2023-12-20T10:59:57;97449.16;;;5.20;100.00
12452;BME280;72521;48.924;12.204;2023-12-20T11:05:13;97431.34;;;5.22;100.00
12452;BME280;72521;48.924;12.204;2023-12-20T11:10:29;97434.34;;;5.31;100.00
12452;BME280;72521;48.924;12.204;2023-12-20T11:15:34;97421.66;;;5.50;100.00
12452;BME280;72521;48.924;12.204;2023-12-20T11:20:41;97416.72;;;5.27;100.00
12452;BME280;72521;48.924;12.204;2023-12-20T11:25:47;97417.56;;;5.59;100.00
12452;BME280;72521;48.924;12.204;2023-12-20T11:30:53;97420.94;;;5.54;100.00
12452;BME280;72521;48.924;12.204;2023-12-20T11:36:00;97405.31;;;5.70;100.00
12452;BME280;72521;48.924;12.204;2023-12-20T11:41:06;97411.81;;;5.35;100.00
12452;BME280;72521;48.924;12.204;2023-12-20T11:46:10;97402.34;;;5.56;100.00
12452;BME280;72521;48.924;12.204;2023-12-20T11:51:16;97409.09;;;5.25;100.00
12452;BME280;72521;48.924;12.204;2023-12-20T11:56:20;97412.47;;;4.99;100.00
12452;BME280;72521;48.924;12.204;2023-12-20T12:01:25;97390.38;;;5.16;100.00
12452;BME280;72521;48.924;12.204;2023-12-20T12:06:31;97386.31;;;5.31;100.00
12452;BME280;72521;48.924;12.204;2023-12-20T12:11:35;97385.88;;;5.39;100.00
12452;BME280;72521;48.924;12.204;2023-12-20T12:16:41;97379.75;;;5.55;100.00
12452;BME280;72521;48.924;12.204;2023-12-20T12:21:46;97379.44;;;5.51;100.00
12452;BME280;72521;48.924;12.204;2023-12-20T12:26:51;97382.63;;;5.53;100.00
12452;BME280;72521;48.924;12.204;2023-12-20T12:31:55;97378.53;;;5.68;100.00
12452;BME280;72521;48.924;12.204;2023-12-20T12:37:01;97385.78;;;5.55;100.00
12452;BME280;72521;48.924;12.204;2023-12-20T12:42:06;97392.31;;;5.53;100.00
12452;BME280;72521;48.924;12.204;2023-12-20T12:47:11;97401.91;;;5.15;100.00
12452;BME280;72521;48.924;12.204;2023-12-20T12:52:17;97396.72;;;5.20;100.00
12452;BME280;72521;48.924;12.204;2023-12-20T12:57:21;97388.25;;;5.13;100.00
12452;BME280;72521;48.924;12.204;2023-12-20T13:02:25;97385.97;;;5.22;100.00
12452;BME280;72521;48.924;12.204;2023-12-20T13:07:31;97386.97;;;5.16;100.00
12452;BME280;72521;48.924;12.204;2023-12-20T13:12:35;97376.13;;;5.34;100.00
12452;BME280;72521;48.924;12.204;2023-12-20T13:17:39;97385.97;;;5.22;100.00
12452;BME280;72521;48.924;12.204;2023-12-20T13:22:46;97374.44;;;5.23;100.00
12452;BME280;72521;48.924;12.204;2023-12-20T13:27:51;97375.69;;;5.15;100.00
12452;BME280;72521;48.924;12.204;2023-12-20T13:32:55;97379.38;;;5.19;100.00
12452;BME280;72521;48.924;12.204;2023-12-20T13:38:00;97395.72;;;5.00;100.00
12452;BME280;72521;48.924;12.204;2023-12-20T13:43:05;97386.09;;;5.10;100.00
12452;BME280;72521;48.924;12.204;2023-12-20T13:48:09;97379.44;;;4.98;100.00
12452;BME280;72521;48.924;12.204;2023-12-20T13:53:14;97379.31;;;5.09;100.00
12452;BME280;72521;48.924;12.204;2023-12-20T13:58:19;97377.84;;;4.97;100.00
12452;BME280;72521;48.924;12.204;2023-12-20T14:03:23;97386.94;;;4.89;100.00
12452;BME280;72521;48.924;12.204;2023-12-20T14:08:30;97398.97;;;5.12;100.00
12452;BME280;72521;48.924;12.204;2023-12-20T14:13:35;97394.59;;;5.17;100.00
12452;BME280;72521;48.924;12.204;2023-12-20T14:18:39;97407.34;;;5.09;100.00
12452;BME280;72521;48.924;12.204;2023-12-20T14:23:45;97409.88;;;4.99;100.00
12452;BME280;72521;48.924;12.204;2023-12-20T14:28:51;97406.13;;;4.95;100.00
12452;BME280;72521;48.924;12.204;2023-12-20T14:33:56;97407.59;;;4.85;100.00
12452;BME280;72521;48.924;12.204;2023-12-20T14:39:03;97406.78;;;4.63;100.00
12452;BME280;72521;48.924;12.204;2023-12-20T14:44:07;97401.00;;;4.61;100.00
12452;BME280;72521;48.924;12.204;2023-12-20T14:49:11;97403.00;;;4.54;100.00
12452;BME280;72521;48.924;12.204;2023-12-20T14:54:18;97400.47;;;4.42;100.00
12452;BME280;72521;48.924;12.204;2023-12-20T14:59:23;97406.22;;;4.39;100.00
12452;BME280;72521;48.924;12.204;2023-12-20T15:04:27;97400.88;;;4.34;100.00
12452;BME280;72521;48.924;12.204;2023-12-20T15:09:33;97402.97;;;4.16;100.00
12452;BME280;72521;48.924;12.204;2023-12-20T15:14:37;97386.88;;;4.07;100.00
12452;BME280;72521;48.924;12.204;2023-12-20T15:19:42;97383.47;;;4.06;100.00
12452;BME280;72521;48.924;12.204;2023-12-20T15:24:48;97368.25;;;4.03;100.00
12452;BME280;72521;48.924;12.204;2023-12-20T15:29:54;97359.47;;;3.93;100.00
12452;BME280;72521;48.924;12.204;2023-12-20T15:34:59;97357.78;;;3.87;100.00
12452;BME280;72521;48.924;12.204;2023-12-20T15:40:07;97355.25;;;3.75;100.00
12452;BME280;72521;48.924;12.204;2023-12-20T15:45:13;97335.69;;;3.61;100.00
12452;BME280;72521;48.924;12.204;2023-12-20T15:50:17;97362.00;;;3.54;100.00
12452;BME280;72521;48.924;12.204;2023-12-20T15:55:23;97372.91;;;3.51;100.00
12452;BME280;72521;48.924;12.204;2023-12-20T16:00:28;97377.03;;;3.47;100.00
12452;BME280;72521;48.924;12.204;2023-12-20T16:05:33;97379.41;;;3.49;100.00
12452;BME280;72521;48.924;12.204;2023-12-20T16:10:41;97378.22;;;3.56;100.00
12452;BME280;72521;48.924;12.204;2023-12-20T16:15:45;97385.28;;;3.56;100.00
12452;BME280;72521;48.924;12.204;2023-12-20T16:20:50;97391.47;;;3.66;100.00
12452;BME280;72521;48.924;12.204;2023-12-20T16:25:55;97387.59;;;3.86;100.00
12452;BME280;72521;48.924;12.204;2023-12-20T16:31:00;97378.56;;;3.93;100.00
12452;BME280;72521;48.924;12.204;2023-12-20T16:36:05;97376.50;;;3.95;100.00
12452;BME280;72521;48.924;12.204;2023-12-20T16:41:10;97393.00;;;3.96;100.00
12452;BME280;72521;48.924;12.204;2023-12-20T16:46:15;97378.16;;;4.01;100.00
12452;BME280;72521;48.924;12.204;2023-12-20T16:51:19;97388.94;;;4.05;100.00
12452;BME280;72521;48.924;12.204;2023-12-20T16:56:25;97396.56;;;4.06;100.00
12452;BME280;72521;48.924;12.204;2023-12-20T17:01:29;97393.66;;;4.03;100.00
12452;BME280;72521;48.924;12.204;2023-12-20T17:06:34;97383.66;;;3.83;100.00
12452;BME280;72521;48.924;12.204;2023-12-20T17:11:41;97377.13;;;3.86;100.00
12452;BME280;72521;48.924;12.204;2023-12-20T17:16:45;97350.56;;;3.77;100.00
12452;BME280;72521;48.924;12.204;2023-12-20T17:21:51;97371.28;;;3.79;100.00
12452;BME280;72521;48.924;12.204;2023-12-20T17:26:57;97363.97;;;3.81;100.00
12452;BME280;72521;48.924;12.204;2023-12-20T17:32:01;97371.50;;;3.77;100.00
12452;BME280;72521;48.924;12.204;2023-12-20T17:37:07;97375.88;;;3.88;100.00
12452;BME280;72521;48.924;12.204;2023-12-20T17:42:14;97379.28;;;3.89;100.00
12452;BME280;72521;48.924;12.204;2023-12-20T17:47:18;97380.94;;;3.95;100.00
12452;BME280;72521;48.924;12.204;2023-12-20T17:52:22;97365.16;;;4.06;100.00
12452;BME280;72521;48.924;12.204;2023-12-20T17:57:28;97371.13;;;4.02;100.00
12452;BME280;72521;48.924;12.204;2023-12-20T18:02:32;97375.78;;;4.00;100.00
12452;BME280;72521;48.924;12.204;2023-12-20T18:07:36;97356.91;;;3.98;100.00
12452;BME280;72521;48.924;12.204;2023-12-20T18:12:42;97359.13;;;3.89;100.00
12452;BME280;72521;48.924;12.204;2023-12-20T18:17:46;97355.56;;;3.95;100.00
12452;BME280;72521;48.924;12.204;2023-12-20T18:22:51;97369.66;;;3.94;100.00
12452;BME280;72521;48.924;12.204;2023-12-20T18:27:57;97361.34;;;3.97;100.00
12452;BME280;72521;48.924;12.204;2023-12-20T18:33:03;97382.22;;;3.92;100.00
12452;BME280;72521;48.924;12.204;2023-12-20T18:38:08;97399.81;;;3.97;100.00
12452;BME280;72521;48.924;12.204;2023-12-20T18:43:13;97401.63;;;3.96;100.00
12452;BME280;72521;48.924;12.204;2023-12-20T18:48:18;97401.00;;;3.89;100.00
12452;BME280;72521;48.924;12.204;2023-12-20T18:53:25;97391.25;;;4.01;100.00
12452;BME280;72521;48.924;12.204;2023-12-20T18:58:31;97391.34;;;3.90;100.00
12452;BME280;72521;48.924;12.204;2023-12-20T19:03:35;97392.69;;;3.92;100.00
12452;BME280;72521;48.924;12.204;2023-12-20T19:08:39;97389.97;;;3.87;100.00
12452;BME280;72521;48.924;12.204;2023-12-20T19:13:46;97409.31;;;3.86;100.00
12452;BME280;72521;48.924;12.204;2023-12-20T19:18:49;97410.91;;;3.87;100.00
12452;BME280;72521;48.924;12.204;2023-12-20T19:23:54;97396.25;;;3.86;100.00
12452;BME280;72521;48.924;12.204;2023-12-20T19:29:00;97392.19;;;3.95;100.00
12452;BME280;72521;48.924;12.204;2023-12-20T19:34:04;97386.72;;;3.97;100.00
12452;BME280;72521;48.924;12.204;2023-12-20T19:39:08;97378.81;;;3.92;100.00
12452;BME280;72521;48.924;12.204;2023-12-20T19:44:14;97371.53;;;3.94;100.00
12452;BME280;72521;48.924;12.204;2023-12-20T19:49:20;97360.72;;;3.90;100.00
12452;BME280;72521;48.924;12.204;2023-12-20T19:54:24;97368.56;;;3.90;100.00
12452;BME280;72521;48.924;12.204;2023-12-20T19:59:30;97371.19;;;3.90;100.00
12452;BME280;72521;48.924;12.204;2023-12-20T20:04:34;97363.50;;;3.84;100.00
12452;BME280;72521;48.924;12.204;2023-12-20T20:09:40;97349.88;;;3.82;100.00
12452;BME280;72521;48.924;12.204;2023-12-20T20:14:45;97344.53;;;3.77;100.00
12452;BME280;72521;48.924;12.204;2023-12-20T20:19:50;97334.66;;;3.62;100.00
12452;BME280;72521;48.924;12.204;2023-12-20T20:24:54;97351.91;;;3.46;100.00
12452;BME280;72521;48.924;12.204;2023-12-20T20:29:59;97340.09;;;3.44;100.00
12452;BME280;72521;48.924;12.204;2023-12-20T20:35:05;97330.84;;;3.36;100.00
12452;BME280;72521;48.924;12.204;2023-12-20T20:40:10;97330.97;;;3.46;100.00
12452;BME280;72521;48.924;12.204;2023-12-20T20:45:18;97320.16;;;3.54;100.00
12452;BME280;72521;48.924;12.204;2023-12-20T20:50:22;97321.97;;;3.54;100.00
12452;BME280;72521;48.924;12.204;2023-12-20T20:55:27;97304.28;;;3.44;100.00
12452;BME280;72521;48.924;12.204;2023-12-20T21:00:32;97312.59;;;3.41;100.00
12452;BME280;72521;48.924;12.204;2023-12-20T21:05:36;97313.00;;;3.33;100.00
12452;BME280;72521;48.924;12.204;2023-12-20T21:10:41;97309.34;;;3.34;100.00
12452;BME280;72521;48.924;12.204;2023-12-20T21:15:48;97314.97;;;3.26;100.00
12452;BME280;72521;48.924;12.204;2023-12-20T21:20:53;97305.31;;;3.26;100.00
12452;BME280;72521;48.924;12.204;2023-12-20T21:25:57;97278.50;;;3.19;100.00
12452;BME280;72521;48.924;12.204;2023-12-20T21:31:03;97264.97;;;3.22;100.00
12452;BME280;72521;48.924;12.204;2023-12-20T21:36:07;97282.66;;;3.15;100.00
12452;BME280;72521;48.924;12.204;2023-12-20T21:41:13;97290.88;;;3.07;100.00
12452;BME280;72521;48.924;12.204;2023-12-20T21:46:26;97277.66;;;3.14;100.00
12452;BME280;72521;48.924;12.204;2023-12-20T21:51:32;97283.19;;;3.17;100.00
12452;BME280;72521;48.924;12.204;2023-12-20T21:56:36;97274.81;;;3.32;100.00
12452;BME280;72521;48.924;12.204;2023-12-20T22:01:42;97284.00;;;3.34;100.00
12452;BME280;72521;48.924;12.204;2023-12-20T22:06:47;97273.59;;;3.40;100.00
12452;BME280;72521;48.924;12.204;2023-12-20T22:11:51;97276.31;;;3.45;100.00
12452;BME280;72521;48.924;12.204;2023-12-20T22:16:57;97270.81;;;3.46;100.00
12452;BME280;72521;48.924;12.204;2023-12-20T22:22:01;97249.66;;;3.48;100.00
12452;BME280;72521;48.924;12.204;2023-12-20T22:27:05;97236.75;;;3.58;100.00
12452;BME280;72521;48.924;12.204;2023-12-20T22:32:12;97243.78;;;3.57;100.00
12452;BME280;72521;48.924;12.204;2023-12-20T22:37:16;97250.31;;;3.55;100.00
12452;BME280;72521;48.924;12.204;2023-12-20T22:42:21;97237.53;;;3.58;100.00
12452;BME280;72521;48.924;12.204;2023-12-20T22:47:26;97235.94;;;3.57;100.00
12452;BME280;72521;48.924;12.204;2023-12-20T22:52:30;97227.94;;;3.64;100.00
12452;BME280;72521;48.924;12.204;2023-12-20T22:57:34;97217.78;;;3.67;100.00
12452;BME280;72521;48.924;12.204;2023-12-20T23:02:40;97205.72;;;3.83;100.00
12452;BME280;72521;48.924;12.204;2023-12-20T23:07:44;97196.31;;;3.87;100.00
12452;BME280;72521;48.924;12.204;2023-12-20T23:12:50;97182.00;;;3.95;100.00
12452;BME280;72521;48.924;12.204;2023-12-20T23:17:55;97176.84;;;4.00;100.00
12452;BME280;72521;48.924;12.204;2023-12-20T23:23:00;97173.91;;;3.96;100.00
12452;BME280;72521;48.924;12.204;2023-12-20T23:28:05;97161.38;;;3.98;100.00
12452;BME280;72521;48.924;12.204;2023-12-20T23:33:11;97151.94;;;3.97;100.00
12452;BME280;72521;48.924;12.204;2023-12-20T23:38:19;97134.59;;;4.13;100.00
12452;BME280;72521;48.924;12.204;2023-12-20T23:43:23;97118.50;;;4.04;100.00
12452;BME280;72521;48.924;12.204;2023-12-20T23:48:28;97102.31;;;4.07;100.00
12452;BME280;72521;48.924;12.204;2023-12-20T23:53:32;97081.59;;;4.01;100.00
12452;BME280;72521;48.924;12.204;2023-12-20T23:58:37;97096.53;;;4.05;100.00
